Detall de PIREP

Printer-friendly versionPDF version

[2009/10/17 12:41:00]
Flight IATA:CT2106
Pilot Number:041
Company ICAO:CAT
Aircraft Type:AT72/F
PAX:49
Departing Airport: LEVC
Destination Airport: LEMD
Alternate Airport:LETO
Online: VATSIM
Route:CENTA2A A33 PRADO1E
Flight Level:FL150
No Slew and time accel
No pause
Crash detect
Detect pilot in Cockpit between each 30 and 45 minutes
12:41 Zero fuel Weight: 42697 Lbs, Fuel Weight: 3877 Lbs
12:41 VATSIM:LEVC 171230Z 08010KT 050V110 9999 FEW025 21/11 Q1016 NOSIG
12:41 VATSIM:LEMD 171230Z 16003KT CAVOK 19/M09 Q1018 NOSIG
12:42 VOICE CATALONIAN
12:45 Parking Brakes off
12:53 Take-off
12:53 Take off Weight: 46463 Lbs
12:53 Wind: 000º @ 000 Knots Heading: 295º
12:53 POS N39º 29´ 22´´ W000º 28´ 54´´
12:53 Gear Up: 133 Knots
12:53 Flaps:1 at 133 Knots
12:54 Flaps:0 at 154 Knots
13:08 Wind:010º@012 Knots Heading: 301º Ground Speed: 273 Knots Altitude 10377 ft
13:12 TOC

13:12 Fuel Weight: 3095 Lb
13:14 TOD
13:14 Fuel Weight: 3029 Lb
13:23 Wind:064º@010 Knots Heading: 333º Ground Speed: 247 Knots Altitude 10203 ft
13:38 Wind:081º@007 Knots Heading: 178º Ground Speed: 228 Knots Altitude 6250 ft
13:39 Flaps:1 at 220 Knots
13:39 Gear Down: 218 Knots
13:40 Flaps:2 at 192 Knots
13:40 TouchDown:Rate -170 ft/min Speed: 108 Knots
13:41 VATSIM:LEMD 171300Z 22002KT CAVOK 21/M08 Q1018 NOSIG
13:41 Land
13:41 Wind:159º@002 Knots
13:41 Heading: 179º
13:41 Flight Duration: 00:48
13:41 Landing Weight: 45254 Lbs
13:41 POS N40º 30´ 29´´ W003º 33´ 32´´
13:48 Parking brakes on
13:48 Block to Block Duration: 01:03
13:48 Final Fuel: 2491 Lbls
13:48 Spent Fuel: 1386 Lbls
13:48 Flight Length: 130 NM
13:48 TOD Land Length: 104 NM

Exportar CSV

Powered by Drupal - Modified by Danger4k